createdAt,value
2017-07-26T00:01:18.650Z,18.40
2017-07-26T00:03:46.987Z,18.40
2017-07-26T00:06:14.536Z,18.40
2017-07-26T00:08:42.538Z,18.40
2017-07-26T00:11:10.085Z,18.40
2017-07-26T00:13:37.686Z,18.40
2017-07-26T00:16:06.337Z,18.30
2017-07-26T00:18:33.905Z,18.30
2017-07-26T00:21:01.443Z,18.20
2017-07-26T00:23:29.338Z,18.20
2017-07-26T00:25:56.881Z,18.20
2017-07-26T00:28:24.451Z,18.20
2017-07-26T00:30:52.311Z,18.30
2017-07-26T00:33:19.849Z,18.20
2017-07-26T00:35:47.395Z,18.20
2017-07-26T00:38:15.209Z,18.10
2017-07-26T00:40:42.753Z,18.10
2017-07-26T00:43:10.286Z,18.10
2017-07-26T00:45:38.205Z,18.00
2017-07-26T00:48:05.736Z,18.00
2017-07-26T00:50:33.269Z,18.00
2017-07-26T00:53:01.175Z,18.00
2017-07-26T00:55:28.711Z,18.00
2017-07-26T00:57:56.275Z,17.90
2017-07-26T01:00:24.165Z,18.00
2017-07-26T01:02:51.707Z,18.00
2017-07-26T01:05:19.223Z,18.00
2017-07-26T01:07:47.051Z,18.00
2017-07-26T01:10:14.578Z,18.00
2017-07-26T01:12:42.107Z,18.00
2017-07-26T01:15:09.973Z,18.00
2017-07-26T01:17:37.545Z,18.00
2017-07-26T01:20:05.856Z,18.00
2017-07-26T01:22:33.838Z,18.00
2017-07-26T01:25:01.366Z,18.00
2017-07-26T01:27:29.674Z,18.10
2017-07-26T01:29:57.576Z,18.10
2017-07-26T01:32:25.110Z,18.10
2017-07-26T01:34:52.632Z,18.20
2017-07-26T01:37:20.538Z,18.20
2017-07-26T01:39:48.069Z,18.30
2017-07-26T01:42:15.634Z,18.30
2017-07-26T01:44:43.546Z,18.30
2017-07-26T01:47:11.067Z,18.30
2017-07-26T01:49:38.614Z,18.40
2017-07-26T01:52:06.520Z,18.40
2017-07-26T01:54:34.051Z,18.40
2017-07-26T01:57:01.580Z,18.50
2017-07-26T01:59:29.507Z,18.50
2017-07-26T02:01:57.057Z,18.60
2017-07-26T02:04:24.591Z,18.50
2017-07-26T02:06:52.386Z,18.50
2017-07-26T02:09:19.925Z,18.50
2017-07-26T02:11:47.470Z,18.50
2017-07-26T02:14:16.088Z,18.60
2017-07-26T02:16:43.612Z,18.60
2017-07-26T02:19:11.161Z,18.60
2017-07-26T02:21:38.996Z,18.60
2017-07-26T02:24:06.541Z,18.70
2017-07-26T02:26:34.096Z,18.70
2017-07-26T02:29:01.890Z,18.70
2017-07-26T02:31:29.439Z,18.70
2017-07-26T02:33:56.987Z,18.70
2017-07-26T02:36:24.873Z,18.70
2017-07-26T02:38:52.426Z,18.70
2017-07-26T02:41:19.973Z,18.70
2017-07-26T02:43:47.806Z,18.70
2017-07-26T02:46:15.353Z,18.70
2017-07-26T02:48:42.884Z,18.70
2017-07-26T02:51:10.745Z,18.70
2017-07-26T02:53:38.262Z,18.70
2017-07-26T02:56:05.803Z,18.70
2017-07-26T02:58:33.626Z,18.70
2017-07-26T03:01:01.140Z,18.70
2017-07-26T03:03:28.685Z,18.70
2017-07-26T03:05:56.653Z,18.60
2017-07-26T03:08:24.978Z,18.60
2017-07-26T03:10:52.518Z,18.60
2017-07-26T03:13:20.451Z,18.50
2017-07-26T03:15:47.980Z,18.50
2017-07-26T03:18:15.521Z,18.40
2017-07-26T03:20:43.414Z,18.40
2017-07-26T03:23:10.959Z,18.40
2017-07-26T03:25:38.490Z,18.40
2017-07-26T03:28:06.394Z,18.40
2017-07-26T03:30:34.709Z,18.30
2017-07-26T03:33:02.262Z,18.30
2017-07-26T03:35:30.108Z,18.30
2017-07-26T03:37:57.643Z,18.30
2017-07-26T03:40:25.182Z,18.30
2017-07-26T03:42:56.126Z,18.30
2017-07-26T03:45:23.663Z,18.30
2017-07-26T03:47:51.250Z,18.30
2017-07-26T03:50:18.805Z,18.30
2017-07-26T03:52:47.109Z,18.40
2017-07-26T03:55:14.667Z,18.30
2017-07-26T03:57:42.241Z,18.40
2017-07-26T04:00:09.796Z,18.40
2017-07-26T04:02:37.322Z,18.40
2017-07-26T04:05:04.916Z,18.40
2017-07-26T04:07:32.471Z,18.40
2017-07-26T04:10:00.030Z,18.30
2017-07-26T04:12:27.589Z,18.40
2017-07-26T04:14:55.176Z,18.40
2017-07-26T04:17:22.712Z,18.40
2017-07-26T04:19:50.594Z,18.50
2017-07-26T04:22:18.145Z,18.50
2017-07-26T04:24:45.717Z,18.60
2017-07-26T04:27:13.547Z,18.60
2017-07-26T04:29:41.084Z,18.60
2017-07-26T04:32:09.400Z,18.70
2017-07-26T04:34:36.969Z,18.70
2017-07-26T04:37:04.527Z,18.70
2017-07-26T04:39:32.092Z,18.80
2017-07-26T04:41:59.964Z,18.80
2017-07-26T04:44:27.497Z,18.90
2017-07-26T04:46:55.037Z,18.90
2017-07-26T04:49:22.988Z,18.90
2017-07-26T04:51:50.522Z,18.90
2017-07-26T04:54:18.049Z,18.90
2017-07-26T04:56:45.947Z,18.90
2017-07-26T04:59:13.476Z,18.90
2017-07-26T05:01:41.000Z,19.00
2017-07-26T05:04:09.345Z,19.00
2017-07-26T05:06:37.525Z,19.00
2017-07-26T05:09:05.040Z,19.10
2017-07-26T05:11:32.625Z,19.10
2017-07-26T05:14:00.171Z,19.10
2017-07-26T05:16:27.722Z,19.10
2017-07-26T05:18:55.517Z,19.10
2017-07-26T05:21:23.047Z,19.10
2017-07-26T05:23:50.577Z,19.20
2017-07-26T05:26:18.620Z,19.20
2017-07-26T05:28:46.167Z,19.20
2017-07-26T05:31:13.723Z,19.20
2017-07-26T05:33:41.603Z,19.20
2017-07-26T05:36:09.123Z,19.30
2017-07-26T05:38:36.670Z,19.30
2017-07-26T05:41:04.603Z,19.30
2017-07-26T05:43:32.173Z,19.30
2017-07-26T05:45:59.681Z,19.40
2017-07-26T05:48:27.525Z,19.40
2017-07-26T05:50:55.099Z,19.30
2017-07-26T05:53:22.641Z,19.40
2017-07-26T05:55:50.599Z,19.30
2017-07-26T05:58:18.142Z,19.40
2017-07-26T06:00:45.679Z,19.40
2017-07-26T06:03:13.560Z,19.40
2017-07-26T06:05:41.081Z,19.40
2017-07-26T06:08:08.619Z,19.40
2017-07-26T06:10:37.273Z,19.40
2017-07-26T06:13:04.795Z,19.40
2017-07-26T06:15:32.317Z,19.40
2017-07-26T06:18:00.639Z,19.30
2017-07-26T06:20:28.212Z,19.40
2017-07-26T06:22:55.737Z,19.30
2017-07-26T06:25:23.509Z,19.30
2017-07-26T06:27:51.086Z,19.20
2017-07-26T06:30:18.663Z,19.20
2017-07-26T06:32:46.638Z,19.10
2017-07-26T06:35:14.173Z,19.20
2017-07-26T06:37:42.155Z,19.10
2017-07-26T06:40:10.028Z,19.20
2017-07-26T06:42:37.584Z,19.20
2017-07-26T06:45:05.129Z,19.20
2017-07-26T06:47:33.165Z,19.20
2017-07-26T06:50:01.488Z,19.30
2017-07-26T06:52:29.036Z,19.30
2017-07-26T06:54:56.606Z,19.40
2017-07-26T06:57:24.157Z,19.50
2017-07-26T06:59:51.706Z,19.50
2017-07-26T07:02:19.300Z,19.60
2017-07-26T07:04:46.845Z,19.80
2017-07-26T07:07:14.389Z,19.80
2017-07-26T07:09:42.731Z,19.70
2017-07-26T07:12:10.258Z,19.70
2017-07-26T07:14:37.863Z,19.60
2017-07-26T07:17:05.714Z,19.50
2017-07-26T07:19:33.231Z,19.50
2017-07-26T07:22:00.896Z,19.50
2017-07-26T07:24:28.767Z,19.50
2017-07-26T07:26:56.327Z,19.50
2017-07-26T07:29:23.878Z,19.50
2017-07-26T07:31:51.778Z,19.50
2017-07-26T07:34:19.390Z,19.50
2017-07-26T07:36:46.946Z,19.40
2017-07-26T07:39:14.879Z,19.40
2017-07-26T07:41:42.475Z,19.50
2017-07-26T07:44:10.183Z,19.50
2017-07-26T07:46:38.021Z,19.60
2017-07-26T07:49:05.573Z,19.60
2017-07-26T07:51:33.940Z,19.70
2017-07-26T07:54:02.606Z,19.70
2017-07-26T07:56:30.162Z,19.70
2017-07-26T07:58:57.697Z,19.80
2017-07-26T08:01:25.599Z,19.90
2017-07-26T08:03:53.182Z,20.00
2017-07-26T08:06:20.709Z,20.20
2017-07-26T08:08:48.666Z,20.30
2017-07-26T08:11:16.221Z,20.50
2017-07-26T08:13:43.768Z,20.60
2017-07-26T08:16:11.587Z,20.70
2017-07-26T08:18:39.119Z,20.90
2017-07-26T08:21:06.736Z,20.90
2017-07-26T08:23:34.656Z,20.90
2017-07-26T08:26:02.249Z,21.00
2017-07-26T08:28:30.559Z,21.10
2017-07-26T08:30:58.531Z,21.10
2017-07-26T08:33:26.069Z,21.10
2017-07-26T08:35:53.626Z,21.10
2017-07-26T08:38:21.569Z,21.00
2017-07-26T08:40:49.109Z,20.90
2017-07-26T08:43:16.653Z,20.90
2017-07-26T08:45:44.509Z,20.80
2017-07-26T08:48:12.065Z,20.90
2017-07-26T08:50:39.623Z,20.90
2017-07-26T08:53:07.537Z,21.00
2017-07-26T08:55:35.111Z,21.00
2017-07-26T08:58:02.630Z,21.00
2017-07-26T09:00:30.483Z,21.20
2017-07-26T09:02:58.021Z,21.30
2017-07-26T09:05:26.387Z,21.50
2017-07-26T09:07:54.342Z,21.50
2017-07-26T09:10:21.889Z,21.50
2017-07-26T09:12:49.446Z,21.50
2017-07-26T09:15:17.326Z,21.40
2017-07-26T09:17:44.843Z,21.30
2017-07-26T09:20:12.366Z,21.10
2017-07-26T09:22:41.012Z,21.00
2017-07-26T09:25:08.580Z,21.00
2017-07-26T09:27:36.110Z,21.00
2017-07-26T09:30:04.022Z,21.10
2017-07-26T09:32:31.584Z,21.20
2017-07-26T09:34:59.133Z,21.40
2017-07-26T09:37:26.984Z,21.60
2017-07-26T09:39:54.506Z,21.70
2017-07-26T09:42:22.081Z,21.80
2017-07-26T09:44:50.617Z,21.70
2017-07-26T09:47:18.173Z,21.70
2017-07-26T09:49:45.727Z,21.70
2017-07-26T09:52:13.585Z,21.70
2017-07-26T09:54:41.144Z,21.70
2017-07-26T09:57:08.692Z,21.80
2017-07-26T09:59:36.598Z,21.60
2017-07-26T10:02:04.220Z,21.50
2017-07-26T10:04:31.761Z,21.50
2017-07-26T10:06:59.673Z,21.50
2017-07-26T10:09:27.212Z,21.50
2017-07-26T10:11:54.805Z,21.40
2017-07-26T10:14:22.780Z,21.40
2017-07-26T10:16:51.095Z,21.40
2017-07-26T10:19:18.659Z,21.40
2017-07-26T10:21:46.566Z,21.40
2017-07-26T10:24:14.185Z,21.40
2017-07-26T10:26:41.733Z,21.40
2017-07-26T10:29:09.663Z,21.40
2017-07-26T10:31:37.200Z,21.50
2017-07-26T10:34:04.765Z,21.60
2017-07-26T10:36:32.689Z,21.60
2017-07-26T10:39:00.255Z,21.80
2017-07-26T10:41:27.785Z,22.00
2017-07-26T10:43:56.461Z,22.20
2017-07-26T10:46:24.047Z,22.40
2017-07-26T10:48:53.108Z,22.50
2017-07-26T10:51:20.996Z,22.40
2017-07-26T10:53:48.555Z,22.40
2017-07-26T10:56:16.119Z,22.30
2017-07-26T10:58:43.936Z,22.30
2017-07-26T11:01:11.500Z,22.30
2017-07-26T11:03:39.336Z,22.30
2017-07-26T11:06:07.165Z,22.40
2017-07-26T11:08:34.706Z,22.50
2017-07-26T11:11:02.245Z,22.50
2017-07-26T11:13:30.086Z,22.50
2017-07-26T11:15:58.389Z,22.60
2017-07-26T11:18:25.950Z,22.60
2017-07-26T11:20:53.514Z,22.50
2017-07-26T11:23:21.070Z,22.50
2017-07-26T11:25:48.591Z,22.40
2017-07-26T11:28:16.380Z,22.30
2017-07-26T11:30:43.942Z,22.20
2017-07-26T11:33:11.519Z,22.00
2017-07-26T11:35:39.481Z,22.00
2017-07-26T11:38:07.063Z,21.90
2017-07-26T11:40:34.630Z,21.90
2017-07-26T11:43:02.542Z,21.80
2017-07-26T11:45:30.105Z,21.70
2017-07-26T11:47:57.641Z,21.60
2017-07-26T11:50:25.522Z,21.40
2017-07-26T11:52:53.840Z,21.20
2017-07-26T11:55:21.395Z,21.10
2017-07-26T11:57:49.732Z,21.10
2017-07-26T12:00:17.253Z,21.10
2017-07-26T12:02:44.810Z,21.20
2017-07-26T12:05:12.777Z,21.30
2017-07-26T12:07:40.365Z,21.40
2017-07-26T12:10:07.932Z,21.40
2017-07-26T12:12:35.773Z,21.40
2017-07-26T12:15:03.297Z,21.40
2017-07-26T12:17:31.580Z,21.30
2017-07-26T12:20:00.269Z,21.20
2017-07-26T12:22:28.559Z,21.10
2017-07-26T12:24:56.120Z,21.10
2017-07-26T12:27:24.054Z,21.00
2017-07-26T12:29:51.609Z,21.00
2017-07-26T12:32:19.169Z,20.90
2017-07-26T12:34:47.037Z,20.80
2017-07-26T12:37:14.572Z,20.90
2017-07-26T12:39:42.142Z,20.80
2017-07-26T12:42:10.022Z,20.70
2017-07-26T12:44:37.552Z,20.50
2017-07-26T12:47:05.088Z,20.40
2017-07-26T12:49:33.006Z,20.30
2017-07-26T12:52:00.579Z,20.30
2017-07-26T12:54:28.118Z,20.20
2017-07-26T12:56:56.063Z,20.10
2017-07-26T12:59:23.608Z,20.10
2017-07-26T13:01:51.152Z,20.20
2017-07-26T13:04:19.745Z,20.10
2017-07-26T13:06:50.890Z,20.00
2017-07-26T13:09:18.448Z,20.10
2017-07-26T13:11:46.763Z,20.10
2017-07-26T13:14:14.311Z,20.00
2017-07-26T13:16:41.854Z,19.90
2017-07-26T13:19:09.794Z,19.90
2017-07-26T13:21:37.364Z,19.90
2017-07-26T13:24:04.905Z,20.00
2017-07-26T13:26:32.872Z,20.00
2017-07-26T13:29:00.419Z,20.10
2017-07-26T13:31:27.983Z,20.10
2017-07-26T13:33:55.863Z,20.10
2017-07-26T13:36:23.409Z,20.10
2017-07-26T13:38:50.935Z,20.00
2017-07-26T13:41:18.819Z,20.00
2017-07-26T13:43:46.367Z,19.90
2017-07-26T13:46:13.948Z,19.80
2017-07-26T13:48:41.834Z,19.80
2017-07-26T13:51:09.360Z,19.70
2017-07-26T13:53:36.938Z,19.70
2017-07-26T13:56:04.830Z,19.60
2017-07-26T13:58:32.384Z,19.60
2017-07-26T14:01:00.698Z,19.60
2017-07-26T14:03:29.131Z,19.40
2017-07-26T14:05:56.676Z,19.40
2017-07-26T14:08:24.237Z,19.40
2017-07-26T14:10:52.105Z,19.30
2017-07-26T14:13:19.651Z,19.20
2017-07-26T14:15:47.211Z,19.10
2017-07-26T14:18:15.141Z,19.10
2017-07-26T14:20:42.718Z,19.00
2017-07-26T14:23:10.245Z,19.00
2017-07-26T14:25:37.816Z,18.90
2017-07-26T14:28:05.349Z,18.80
2017-07-26T14:30:33.239Z,18.80
2017-07-26T14:33:00.779Z,18.80
2017-07-26T14:35:28.316Z,18.80
2017-07-26T14:37:55.880Z,18.70
2017-07-26T14:40:23.406Z,18.70
2017-07-26T14:42:52.089Z,18.50
2017-07-26T14:45:19.617Z,18.50
2017-07-26T14:47:47.150Z,18.50
2017-07-26T14:50:14.703Z,18.40
2017-07-26T14:52:42.236Z,18.30
2017-07-26T14:55:10.079Z,18.30
2017-07-26T14:57:37.617Z,18.30
2017-07-26T15:00:05.156Z,18.30
2017-07-26T15:02:32.718Z,18.30
2017-07-26T15:05:00.263Z,18.20
2017-07-26T15:07:28.189Z,18.20
2017-07-26T15:09:55.792Z,18.10
2017-07-26T15:12:23.380Z,18.10
2017-07-26T15:14:50.944Z,18.00
2017-07-26T15:17:18.467Z,17.90
2017-07-26T15:19:46.417Z,17.90
2017-07-26T15:22:13.953Z,17.90
2017-07-26T15:24:41.492Z,17.80
2017-07-26T15:27:09.078Z,17.80
2017-07-26T15:29:36.643Z,17.80
2017-07-26T15:32:05.287Z,17.80
2017-07-26T15:34:32.816Z,17.80
2017-07-26T15:37:00.336Z,17.80
2017-07-26T15:39:27.911Z,17.80
2017-07-26T15:41:56.224Z,17.80
2017-07-26T15:44:24.129Z,17.80
2017-07-26T15:46:51.675Z,17.80
2017-07-26T15:49:19.218Z,17.90
2017-07-26T15:51:46.801Z,17.80
2017-07-26T15:54:14.384Z,17.80
2017-07-26T15:56:42.239Z,17.80
2017-07-26T15:59:09.774Z,17.80
2017-07-26T16:01:37.298Z,17.80
2017-07-26T16:04:05.675Z,17.80
2017-07-26T16:06:33.240Z,17.80
2017-07-26T16:09:01.834Z,17.70
2017-07-26T16:11:30.135Z,17.70
2017-07-26T16:13:57.684Z,17.60
2017-07-26T16:16:25.247Z,17.60
2017-07-26T16:18:52.790Z,17.60
2017-07-26T16:21:21.418Z,17.70
2017-07-26T16:23:48.933Z,17.60
2017-07-26T16:26:16.491Z,17.60
2017-07-26T16:28:44.875Z,17.60
2017-07-26T16:31:12.430Z,17.60
2017-07-26T16:33:41.126Z,17.60
2017-07-26T16:36:08.677Z,17.60
2017-07-26T16:38:36.990Z,17.70
2017-07-26T16:41:04.558Z,17.60
2017-07-26T16:43:32.093Z,17.60
2017-07-26T16:45:59.916Z,17.60
2017-07-26T16:48:27.456Z,17.60
2017-07-26T16:50:55.043Z,17.50
2017-07-26T16:53:22.624Z,17.50
2017-07-26T16:55:50.932Z,17.50
2017-07-26T16:58:18.844Z,17.50
2017-07-26T17:00:46.397Z,17.40
2017-07-26T17:03:13.969Z,17.40
2017-07-26T17:05:41.622Z,17.30
2017-07-26T17:08:09.180Z,17.30
2017-07-26T17:10:37.044Z,17.30
2017-07-26T17:13:06.505Z,17.20
2017-07-26T17:15:34.045Z,17.20
2017-07-26T17:18:01.630Z,17.20
2017-07-26T17:20:29.184Z,17.10
2017-07-26T17:22:57.114Z,17.10
2017-07-26T17:25:24.708Z,17.10
2017-07-26T17:27:52.266Z,17.10
2017-07-26T17:30:19.881Z,17.00
2017-07-26T17:32:47.410Z,17.00
2017-07-26T17:35:15.364Z,17.00
2017-07-26T17:37:42.911Z,16.90
2017-07-26T17:40:11.235Z,16.90
2017-07-26T17:42:38.811Z,16.90
2017-07-26T17:45:06.355Z,16.90
2017-07-26T17:47:34.355Z,16.90
2017-07-26T17:50:01.949Z,16.80
2017-07-26T17:52:29.575Z,16.80
2017-07-26T17:54:57.151Z,16.90
2017-07-26T17:57:24.777Z,16.80
2017-07-26T17:59:52.728Z,16.80
2017-07-26T18:02:20.325Z,16.80
2017-07-26T18:04:47.890Z,16.80
2017-07-26T18:07:17.373Z,16.80
2017-07-26T18:09:45.072Z,16.80
2017-07-26T18:12:12.997Z,16.80
2017-07-26T18:14:40.592Z,16.70
2017-07-26T18:17:08.142Z,16.70
2017-07-26T18:19:35.797Z,16.70
2017-07-26T18:22:03.357Z,16.70
2017-07-26T18:24:31.263Z,16.70
2017-07-26T18:27:00.204Z,16.60
2017-07-26T18:29:27.802Z,16.60
2017-07-26T18:31:56.278Z,16.60
2017-07-26T18:34:23.854Z,16.60
2017-07-26T18:36:51.818Z,16.60
2017-07-26T18:39:19.401Z,16.50
2017-07-26T18:41:46.989Z,16.50
2017-07-26T18:44:14.608Z,16.50
2017-07-26T18:46:42.185Z,16.50
2017-07-26T18:49:10.037Z,16.50
2017-07-26T18:51:38.717Z,16.50
2017-07-26T18:54:06.274Z,16.50
2017-07-26T18:56:33.876Z,16.50
2017-07-26T18:59:01.465Z,16.50
2017-07-26T19:01:29.493Z,16.40
2017-07-26T19:03:57.067Z,16.50
2017-07-26T19:06:24.624Z,16.40
2017-07-26T19:08:52.251Z,16.40
2017-07-26T19:11:19.837Z,16.50
2017-07-26T19:13:48.536Z,16.50
2017-07-26T19:16:16.118Z,16.50
2017-07-26T19:18:43.774Z,16.50
2017-07-26T19:21:11.496Z,16.50
2017-07-26T19:23:39.059Z,16.50
2017-07-26T19:26:07.718Z,16.50
2017-07-26T19:28:35.306Z,16.50
2017-07-26T19:31:02.884Z,16.50
2017-07-26T19:33:30.545Z,16.50
2017-07-26T19:35:58.146Z,16.60
2017-07-26T19:38:26.037Z,16.50
2017-07-26T19:40:53.614Z,16.60
2017-07-26T19:43:21.209Z,16.60
2017-07-26T19:45:48.875Z,16.60
2017-07-26T19:48:16.409Z,16.60
2017-07-26T19:50:44.402Z,16.60
2017-07-26T19:53:12.038Z,16.60
2017-07-26T19:55:39.666Z,16.60
2017-07-26T19:58:07.354Z,16.60
2017-07-26T20:00:35.112Z,16.60
2017-07-26T20:03:03.177Z,16.60
2017-07-26T20:05:30.840Z,16.60
2017-07-26T20:07:58.512Z,16.60
2017-07-26T20:10:26.207Z,16.70
2017-07-26T20:12:53.852Z,16.70
2017-07-26T20:15:22.614Z,16.60
2017-07-26T20:17:50.235Z,16.70
2017-07-26T20:20:17.810Z,16.70
2017-07-26T20:22:45.490Z,16.70
2017-07-26T20:25:13.067Z,16.70
2017-07-26T20:27:41.002Z,16.70
2017-07-26T20:30:08.618Z,16.70
2017-07-26T20:32:36.819Z,16.70
2017-07-26T20:35:04.487Z,16.70
2017-07-26T20:37:32.217Z,16.70
2017-07-26T20:40:00.145Z,16.70
2017-07-26T20:42:27.741Z,16.70
2017-07-26T20:44:55.351Z,16.70
2017-07-26T20:47:22.971Z,16.70
2017-07-26T20:49:50.749Z,16.70
2017-07-26T20:52:18.706Z,16.70
2017-07-26T20:54:46.263Z,16.70
2017-07-26T20:57:14.735Z,16.70
2017-07-26T20:59:42.367Z,16.70
2017-07-26T21:02:09.941Z,16.70
2017-07-26T21:04:37.871Z,16.70
2017-07-26T21:07:05.484Z,16.70
2017-07-26T21:09:34.205Z,16.70
2017-07-26T21:12:01.842Z,16.70
2017-07-26T21:14:29.816Z,16.70
2017-07-26T21:16:57.714Z,16.80
2017-07-26T21:19:25.321Z,16.80
2017-07-26T21:21:53.932Z,16.70
2017-07-26T21:24:21.573Z,16.70
2017-07-26T21:26:49.201Z,16.70
2017-07-26T21:29:17.147Z,16.80
2017-07-26T21:31:44.770Z,16.80
2017-07-26T21:34:12.433Z,16.80
2017-07-26T21:36:40.051Z,16.80
2017-07-26T21:39:07.630Z,16.80
2017-07-26T21:41:35.572Z,16.80
2017-07-26T21:44:03.225Z,16.90
2017-07-26T21:46:31.594Z,16.90
2017-07-26T21:48:59.234Z,16.90
2017-07-26T21:51:26.844Z,16.90
2017-07-26T21:53:54.802Z,16.90
2017-07-26T21:56:23.443Z,16.90
2017-07-26T21:58:51.139Z,16.90
2017-07-26T22:01:19.528Z,17.00
2017-07-26T22:03:47.908Z,16.90
2017-07-26T22:06:16.698Z,16.90
2017-07-26T22:08:44.332Z,16.90
2017-07-26T22:11:11.985Z,17.00
2017-07-26T22:13:39.624Z,17.00
2017-07-26T22:16:07.199Z,17.00
2017-07-26T22:18:35.178Z,17.00
2017-07-26T22:21:03.576Z,17.10
2017-07-26T22:23:33.315Z,17.10
2017-07-26T22:26:01.022Z,17.10
2017-07-26T22:28:28.641Z,17.20
2017-07-26T22:30:56.598Z,17.20
2017-07-26T22:33:24.896Z,17.20
2017-07-26T22:35:52.491Z,17.20
2017-07-26T22:38:20.136Z,17.20
2017-07-26T22:40:47.732Z,17.30
2017-07-26T22:43:15.729Z,17.30
2017-07-26T22:45:44.066Z,17.40
2017-07-26T22:48:12.504Z,17.30
2017-07-26T22:50:40.168Z,17.40
2017-07-26T22:53:07.805Z,17.40
2017-07-26T22:55:35.710Z,17.40
2017-07-26T22:58:03.349Z,17.50
2017-07-26T23:00:30.945Z,17.50
2017-07-26T23:02:59.429Z,17.50
2017-07-26T23:05:27.031Z,17.50
2017-07-26T23:07:55.003Z,17.60
2017-07-26T23:10:23.444Z,17.60
2017-07-26T23:12:51.064Z,17.60
2017-07-26T23:15:19.419Z,17.60
2017-07-26T23:17:47.001Z,17.60
2017-07-26T23:20:14.929Z,17.60
2017-07-26T23:22:42.509Z,17.60
2017-07-26T23:25:13.163Z,17.60
2017-07-26T23:27:40.740Z,17.60
2017-07-26T23:30:09.115Z,17.60
2017-07-26T23:32:40.239Z,17.60
2017-07-26T23:35:08.055Z,17.60
2017-07-26T23:37:35.684Z,17.60
2017-07-26T23:40:04.148Z,17.60
2017-07-26T23:42:31.710Z,17.60
2017-07-26T23:44:59.579Z,17.60
2017-07-26T23:47:27.973Z,17.60
2017-07-26T23:49:56.347Z,17.70
2017-07-26T23:52:24.717Z,17.70
2017-07-26T23:54:53.121Z,17.80
2017-07-26T23:57:21.000Z,17.70
2017-07-26T23:59:49.326Z,17.80
